Terminal Aerodrome Forecast
Issued by NWS

Home | Current Version | Previous Version | Text Only | Print | Product List | Glossary On
Versions: 1 2 3 4 5 6 7 8 9 10 11 12 13 14 15 16 17 18 19 20 21 22 23 24 25 26
000
FTUS43 KDVN 272303 AAA
TAFCID
TAF AMD
KCID 272303Z 2723/2818 29013KT P6SM BKN035
     FM280100 31006KT P6SM SCT250
     FM280600 01006KT P6SM SCT150
     FM281200 06009KT 6SM BR OVC120
     FM281500 07012KT 5SM -RA BR OVC030=

USA.gov is the U.S. government's official web portal to all federal, state and local government web resources and services.